Time,TemperatureF,DewpointF,PressureIn,WindDirection,WindDirectionDegrees,WindSpeedMPH,WindSpeedGustMPH,Humidity,HourlyPrecipIn,Conditions,Clouds,dailyrainin,SolarRadiationWatts/m^2,SoftwareType,DateUTC
2013-07-08 00:02:00,80.3,72.0,29.80,SSE,155,3.5,3.5,76,0.00,OVC,,0.00,0.0,WeatherDisplay:10.37,2013-07-08 05:02:00,
2013-07-08 00:07:00,80.3,72.0,29.80,South,175,0.0,0.0,76,0.00,,,0.00,0.0,WeatherDisplay:10.37,2013-07-08 05:07:00,
2013-07-08 00:12:00,80.3,72.4,29.80,SSE,154,8.1,0.0,77,0.00,,,0.00,0.0,WeatherDisplay:10.37,2013-07-08 05:12:00,
2013-07-08 00:17:00,80.3,72.4,29.80,South,181,0.0,0.9,77,0.00,,,0.00,0.0,WeatherDisplay:10.37,2013-07-08 05:17:00,
2013-07-08 00:22:00,80.3,72.4,29.80,South,181,1.1,0.0,77,0.00,,,0.00,0.0,WeatherDisplay:10.37,2013-07-08 05:22:00,
2013-07-08 00:27:00,80.3,72.4,29.80,SSE,164,0.0,0.0,77,0.00,,,0.00,0.0,WeatherDisplay:10.37,2013-07-08 05:27:00,
2013-07-08 00:32:00,80.3,72.4,29.80,SSE,163,1.1,0.0,77,0.00,,,0.00,0.0,WeatherDisplay:10.37,2013-07-08 05:32:00,
2013-07-08 00:37:00,80.2,72.3,29.80,SW,229,3.5,3.5,77,0.00,,,0.00,0.0,WeatherDisplay:10.37,2013-07-08 05:37:00,
2013-07-08 00:42:00,80.2,72.3,29.80,South,173,0.0,0.0,77,0.00,,,0.00,0.0,WeatherDisplay:10.37,2013-07-08 05:42:00,
2013-07-08 00:47:00,80.2,72.3,29.80,SSE,163,6.0,6.0,77,0.00,,,0.00,0.0,WeatherDisplay:10.37,2013-07-08 05:47:00,
2013-07-08 00:52:00,80.1,72.2,29.80,SSW,208,5.8,5.8,77,0.00,,,0.00,0.0,WeatherDisplay:10.37,2013-07-08 05:52:00,
2013-07-08 00:57:00,80.1,72.2,29.79,SSW,197,3.5,3.5,77,0.00,,,0.00,0.0,WeatherDisplay:10.37,2013-07-08 05:57:00,
2013-07-08 01:02:00,80.0,72.1,29.79,SSW,196,0.0,0.0,77,0.00,,,0.00,0.0,WeatherDisplay:10.37,2013-07-08 06:02:00,
2013-07-08 01:07:00,80.0,72.5,29.79,SW,223,4.0,4.0,78,0.00,,,0.00,0.0,WeatherDisplay:10.37,2013-07-08 06:07:00,
2013-07-08 01:12:00,80.0,72.5,29.78,SSW,211,1.1,2.0,78,0.00,,,0.00,0.0,WeatherDisplay:10.37,2013-07-08 06:12:00,
2013-07-08 01:17:00,79.9,72.4,29.78,SW,227,0.0,0.0,78,0.00,,,0.00,0.0,WeatherDisplay:10.37,2013-07-08 06:17:00,
2013-07-08 01:22:00,79.8,72.3,29.78,SW,218,1.1,0.0,78,0.00,,,0.00,0.0,WeatherDisplay:10.37,2013-07-08 06:22:00,
2013-07-08 01:27:00,79.8,72.3,29.78,WSW,249,0.0,0.0,78,0.00,,,0.00,0.0,WeatherDisplay:10.37,2013-07-08 06:27:00,
2013-07-08 01:32:00,79.8,72.3,29.78,WSW,246,0.0,0.0,78,0.00,,,0.00,0.0,WeatherDisplay:10.37,2013-07-08 06:32:00,
2013-07-08 01:37:00,79.6,72.1,29.78,SW,218,0.0,0.0,78,0.00,,,0.00,0.0,WeatherDisplay:10.37,2013-07-08 06:37:00,
2013-07-08 01:42:00,79.5,72.0,29.78,WSW,238,0.0,0.0,78,0.00,,,0.00,0.0,WeatherDisplay:10.37,2013-07-08 06:42:00,
2013-07-08 01:48:00,79.4,72.3,29.78,SSW,204,1.1,0.0,79,0.00,,,0.00,0.0,WeatherDisplay:10.37,2013-07-08 06:48:00,
2013-07-08 01:53:00,79.4,72.3,29.78,South,187,6.9,6.9,79,0.00,,,0.00,0.0,WeatherDisplay:10.37,2013-07-08 06:53:00,
2013-07-08 01:58:00,79.3,72.2,29.78,SSW,193,0.0,0.0,79,0.00,,,0.00,0.0,WeatherDisplay:10.37,2013-07-08 06:58:00,
2013-07-08 02:03:00,79.3,72.2,29.78,SW,218,1.1,0.0,79,0.00,,,0.00,0.0,WeatherDisplay:10.37,2013-07-08 07:03:00,
2013-07-08 02:08:00,79.2,72.1,29.78,NW,306,6.9,6.9,79,0.00,,,0.00,0.0,WeatherDisplay:10.37,2013-07-08 07:08:00,
2013-07-08 02:13:00,79.1,72.4,29.78,NW,309,5.8,5.8,80,0.00,,,0.00,0.0,WeatherDisplay:10.37,2013-07-08 07:13:00,
2013-07-08 02:18:00,78.9,72.2,29.78,WNW,298,5.8,5.8,80,0.00,,,0.00,0.0,WeatherDisplay:10.37,2013-07-08 07:18:00,
2013-07-08 02:23:00,78.7,72.4,29.78,NW,315,4.6,4.6,81,0.00,,,0.00,0.0,WeatherDisplay:10.37,2013-07-08 07:23:00,
2013-07-08 02:28:00,78.7,72.7,29.78,NW,311,0.0,0.0,82,0.00,,,0.00,0.0,WeatherDisplay:10.37,2013-07-08 07:28:00,
2013-07-08 02:33:00,78.4,72.4,29.78,NW,308,3.5,3.5,82,0.00,,,0.00,0.0,WeatherDisplay:10.37,2013-07-08 07:33:00,
2013-07-08 02:38:00,78.2,72.6,29.78,NW,308,0.0,0.0,83,0.00,,,0.00,0.0,WeatherDisplay:10.37,2013-07-08 07:38:00,
2013-07-08 02:43:00,78.1,72.5,29.78,NW,308,0.0,0.0,83,0.00,,,0.00,0.0,WeatherDisplay:10.37,2013-07-08 07:43:00,
2013-07-08 02:48:00,78.0,72.4,29.78,NW,308,0.0,0.0,83,0.00,,,0.00,0.0,WeatherDisplay:10.37,2013-07-08 07:48:00,
2013-07-08 02:53:00,77.8,72.6,29.78,NW,308,0.0,0.0,84,0.00,,,0.00,0.0,WeatherDisplay:10.37,2013-07-08 07:53:00,
2013-07-08 02:58:00,77.7,72.5,29.76,NW,308,0.0,0.0,84,0.00,,,0.00,0.0,WeatherDisplay:10.37,2013-07-08 07:58:00,
2013-07-08 03:03:00,77.5,72.3,29.76,NW,308,0.0,0.0,84,0.00,,,0.00,0.0,WeatherDisplay:10.37,2013-07-08 08:03:00,
2013-07-08 03:08:00,77.4,72.5,29.76,NW,308,0.0,0.0,85,0.00,,,0.00,0.0,WeatherDisplay:10.37,2013-07-08 08:08:00,
2013-07-08 03:13:00,77.3,72.4,29.76,NW,308,0.0,0.0,85,0.00,,,0.00,0.0,WeatherDisplay:10.37,2013-07-08 08:13:00,
2013-07-08 03:18:00,77.2,72.3,29.76,NW,308,0.0,0.0,85,0.00,,,0.00,0.0,WeatherDisplay:10.37,2013-07-08 08:18:00,
2013-07-08 03:23:00,77.1,72.2,29.76,NW,308,0.0,0.0,85,0.00,,,0.00,0.0,WeatherDisplay:10.37,2013-07-08 08:23:00,
2013-07-08 03:28:00,77.1,72.2,29.76,NW,308,0.0,0.0,85,0.00,,,0.00,0.0,WeatherDisplay:10.37,2013-07-08 08:28:00,
2013-07-08 03:33:00,77.0,72.1,29.76,NW,308,0.0,0.0,85,0.00,,,0.00,0.0,WeatherDisplay:10.37,2013-07-08 08:33:00,
2013-07-08 03:38:00,76.9,72.0,29.76,NW,308,0.0,0.0,85,0.00,,,0.00,0.0,WeatherDisplay:10.37,2013-07-08 08:38:00,
2013-07-08 03:43:00,76.9,72.0,29.77,NW,308,0.0,0.0,85,0.00,,,0.00,0.0,WeatherDisplay:10.37,2013-07-08 08:43:00,
2013-07-08 03:48:00,76.8,72.3,29.77,NW,308,0.0,0.0,86,0.00,,,0.00,0.0,WeatherDisplay:10.37,2013-07-08 08:48:00,
2013-07-08 03:53:00,76.8,72.3,29.77,NW,308,0.0,0.0,86,0.00,,,0.00,0.0,WeatherDisplay:10.37,2013-07-08 08:53:00,
2013-07-08 03:58:00,76.8,72.3,29.78,NW,308,0.0,0.0,86,0.00,,,0.00,0.0,WeatherDisplay:10.37,2013-07-08 08:58:00,
2013-07-08 04:03:00,76.7,72.2,29.78,NW,308,0.0,0.0,86,0.00,,,0.00,0.0,WeatherDisplay:10.37,2013-07-08 09:03:00,
2013-07-08 04:08:00,76.7,72.2,29.78,NW,308,0.0,0.0,86,0.00,,,0.00,0.0,WeatherDisplay:10.37,2013-07-08 09:08:00,
2013-07-08 04:13:00,76.6,72.1,29.78,WNW,303,3.5,3.5,86,0.00,,,0.00,0.0,WeatherDisplay:10.37,2013-07-08 09:13:00,
2013-07-08 04:18:00,76.7,72.2,29.78,WNW,303,0.0,0.0,86,0.00,,,0.00,0.0,WeatherDisplay:10.37,2013-07-08 09:18:00,
2013-07-08 04:23:00,76.7,72.2,29.78,WNW,303,0.0,0.0,86,0.00,,,0.00,0.0,WeatherDisplay:10.37,2013-07-08 09:23:00,
2013-07-08 04:28:00,76.8,72.3,29.79,WNW,303,1.1,0.0,86,0.00,,,0.00,0.0,WeatherDisplay:10.37,2013-07-08 09:28:00,
2013-07-08 04:33:00,76.8,72.3,29.79,WNW,301,0.0,0.0,86,0.00,,,0.00,0.0,WeatherDisplay:10.37,2013-07-08 09:33:00,
2013-07-08 04:38:00,76.8,72.3,29.79,WNW,300,0.0,0.0,86,0.00,,,0.00,0.0,WeatherDisplay:10.37,2013-07-08 09:38:00,
2013-07-08 04:43:00,76.8,72.3,29.80,WNW,300,0.0,0.0,86,0.00,,,0.00,0.0,WeatherDisplay:10.37,2013-07-08 09:43:00,
2013-07-08 04:48:00,76.8,72.3,29.80,WNW,300,0.0,0.0,86,0.00,,,0.00,0.0,WeatherDisplay:10.37,2013-07-08 09:48:00,
2013-07-08 04:53:00,76.8,72.3,29.80,WNW,300,0.0,0.0,86,0.00,,,0.00,0.0,WeatherDisplay:10.37,2013-07-08 09:53:00,
2013-07-08 04:58:00,76.8,72.3,29.80,WNW,300,0.0,0.0,86,0.00,,,0.00,0.0,WeatherDisplay:10.37,2013-07-08 09:58:00,
2013-07-08 05:03:00,76.8,72.3,29.80,WNW,300,0.0,0.0,86,0.00,,,0.00,0.0,WeatherDisplay:10.37,2013-07-08 10:03:00,
2013-07-08 05:08:00,76.8,72.3,29.80,WNW,300,0.0,0.0,86,0.00,,,0.00,0.0,WeatherDisplay:10.37,2013-07-08 10:08:00,
2013-07-08 05:13:00,76.8,72.3,29.80,WNW,300,0.0,0.0,86,0.00,,,0.00,0.0,WeatherDisplay:10.37,2013-07-08 10:13:00,
2013-07-08 05:18:00,76.8,72.3,29.80,WNW,291,0.0,0.0,86,0.00,,,0.00,0.0,WeatherDisplay:10.37,2013-07-08 10:18:00,
2013-07-08 05:23:00,76.8,72.3,29.80,WNW,291,0.0,0.0,86,0.00,,,0.00,0.0,WeatherDisplay:10.37,2013-07-08 10:23:00,
2013-07-08 05:28:00,76.7,72.2,29.79,WNW,291,0.0,0.0,86,0.00,,,0.00,0.0,WeatherDisplay:10.37,2013-07-08 10:28:00,
2013-07-08 05:33:00,76.7,72.2,29.79,WNW,291,0.0,0.0,86,0.00,,,0.00,0.0,WeatherDisplay:10.37,2013-07-08 10:33:00,
2013-07-08 05:38:00,76.7,72.2,29.79,WNW,291,0.0,0.0,86,0.00,,,0.00,0.0,WeatherDisplay:10.37,2013-07-08 10:38:00,
2013-07-08 05:43:00,76.6,72.1,29.79,WNW,291,0.0,0.0,86,0.00,,,0.00,5.0,WeatherDisplay:10.37,2013-07-08 10:43:00,
2013-07-08 05:48:00,76.6,72.1,29.79,WNW,291,0.0,0.0,86,0.00,BKN,,0.00,7.0,WeatherDisplay:10.37,2013-07-08 10:48:00,
2013-07-08 05:53:00,76.5,72.0,29.79,WNW,291,0.0,0.0,86,0.00,BKN,,0.00,11.0,WeatherDisplay:10.37,2013-07-08 10:53:00,
2013-07-08 05:58:00,76.4,71.9,29.78,WNW,291,0.0,0.0,86,0.00,BKN,,0.00,14.0,WeatherDisplay:10.37,2013-07-08 10:58:00,
2013-07-08 06:03:00,76.4,71.9,29.78,WNW,291,0.0,0.0,86,0.00,BKN,,0.00,21.0,WeatherDisplay:10.37,2013-07-08 11:03:00,
2013-07-08 06:08:00,76.3,71.8,29.78,WNW,291,0.0,0.0,86,0.00,BKN,,0.00,25.0,WeatherDisplay:10.37,2013-07-08 11:08:00,
2013-07-08 06:13:00,76.2,72.0,29.79,WNW,291,0.0,0.0,87,0.00,BKN,,0.00,32.0,WeatherDisplay:10.37,2013-07-08 11:13:00,
2013-07-08 06:18:00,76.2,71.7,29.79,WNW,291,0.0,0.0,86,0.00,BKN,,0.00,35.0,WeatherDisplay:10.37,2013-07-08 11:18:00,
2013-07-08 06:23:00,76.2,72.0,29.79,WNW,291,0.0,0.0,87,0.00,BKN,,0.00,40.0,WeatherDisplay:10.37,2013-07-08 11:23:00,
2013-07-08 06:28:00,76.2,72.0,29.80,WNW,291,0.0,0.0,87,0.00,BKN,,0.00,39.0,WeatherDisplay:10.37,2013-07-08 11:28:00,
2013-07-08 06:33:00,76.1,71.9,29.80,WNW,291,0.0,0.0,87,0.00,BKN,,0.00,37.0,WeatherDisplay:10.37,2013-07-08 11:33:00,
2013-07-08 06:39:00,75.9,72.1,29.80,WNW,291,0.0,0.0,88,0.00,SCT,,0.00,76.0,WeatherDisplay:10.37,2013-07-08 11:39:00,
2013-07-08 06:44:00,75.8,72.0,29.80,NW,311,4.6,4.6,88,0.00,SCT,,0.00,104.0,WeatherDisplay:10.37,2013-07-08 11:44:00,
2013-07-08 06:49:00,75.7,72.2,29.80,NNW,331,0.0,0.0,89,0.00,FEW,,0.00,134.0,WeatherDisplay:10.37,2013-07-08 11:49:00,
2013-07-08 06:54:00,75.6,72.1,29.81,NNW,335,0.0,0.0,89,0.00,FEW,,0.00,130.0,WeatherDisplay:10.37,2013-07-08 11:54:00,
2013-07-08 06:59:00,75.5,72.4,29.81,NNW,335,0.0,0.0,90,0.00,FEW,,0.00,76.0,WeatherDisplay:10.37,2013-07-08 11:59:00,
2013-07-08 07:04:00,75.5,72.4,29.81,NNW,335,0.0,0.0,90,0.00,SCT,,0.00,142.0,WeatherDisplay:10.37,2013-07-08 12:04:00,
2013-07-08 07:09:00,75.6,72.5,29.82,NNW,335,0.0,0.0,90,0.00,SCT,,0.00,165.0,WeatherDisplay:10.37,2013-07-08 12:09:00,
2013-07-08 07:14:00,75.6,72.5,29.82,NNW,335,0.0,0.0,90,0.00,FEW,,0.00,141.0,WeatherDisplay:10.37,2013-07-08 12:14:00,
2013-07-08 07:19:00,75.7,72.6,29.82,NNW,335,0.0,0.0,90,0.00,SCT,,0.00,121.0,WeatherDisplay:10.37,2013-07-08 12:19:00,
2013-07-08 07:24:00,75.7,72.6,29.82,NNW,335,0.0,0.0,90,0.00,SCT,,0.00,134.0,WeatherDisplay:10.37,2013-07-08 12:24:00,
2013-07-08 07:29:00,75.8,72.7,29.82,NNW,335,1.1,1.1,90,0.00,SCT,,0.00,190.0,WeatherDisplay:10.37,2013-07-08 12:29:00,
2013-07-08 07:34:00,75.9,72.8,29.82,NNW,335,0.0,0.0,90,0.00,SCT,,0.00,204.0,WeatherDisplay:10.37,2013-07-08 12:34:00,
2013-07-08 07:39:00,76.1,73.0,29.83,NNW,335,0.0,0.0,90,0.00,FEW,,0.00,246.0,WeatherDisplay:10.37,2013-07-08 12:39:00,
2013-07-08 07:44:00,76.3,73.1,29.83,NNW,331,1.1,1.1,90,0.00,FEW,,0.00,260.0,WeatherDisplay:10.37,2013-07-08 12:44:00,
2013-07-08 07:49:00,76.5,73.0,29.83,NNW,330,0.0,0.0,89,0.00,CLR,,0.00,255.0,WeatherDisplay:10.37,2013-07-08 12:49:00,
2013-07-08 07:54:00,76.7,73.2,29.83,NW,325,0.0,0.0,89,0.00,CLR,,0.00,299.0,WeatherDisplay:10.37,2013-07-08 12:54:00,
2013-07-08 07:59:00,76.9,73.1,29.83,NW,319,1.1,0.0,88,0.00,CLR,,0.00,311.0,WeatherDisplay:10.37,2013-07-08 12:59:00,
2013-07-08 08:04:00,77.2,73.0,29.83,NW,319,0.0,0.0,87,0.00,CLR,,0.00,325.0,WeatherDisplay:10.37,2013-07-08 13:04:00,
2013-07-08 08:09:00,77.4,72.9,29.83,NW,319,1.0,0.0,86,0.00,CLR,,0.00,332.0,WeatherDisplay:10.37,2013-07-08 13:09:00,
2013-07-08 08:14:00,77.6,72.7,29.83,NW,326,6.9,6.9,85,0.00,CLR,,0.00,350.0,WeatherDisplay:10.37,2013-07-08 13:14:00,
2013-07-08 08:19:00,77.7,72.5,29.83,WNW,300,9.2,9.2,84,0.00,CLR,,0.00,369.0,WeatherDisplay:10.37,2013-07-08 13:19:00,
2013-07-08 08:24:00,77.8,72.6,29.84,NW,306,0.0,0.0,84,0.00,CLR,,0.00,378.0,WeatherDisplay:10.37,2013-07-08 13:24:00,
2013-07-08 08:29:00,78.0,72.1,29.84,NNW,331,9.2,9.2,82,0.00,CLR,,0.00,397.0,WeatherDisplay:10.37,2013-07-08 13:29:00,
2013-07-08 08:34:00,78.1,72.2,29.84,NNW,335,3.5,3.5,82,0.00,CLR,,0.00,420.0,WeatherDisplay:10.37,2013-07-08 13:34:00,
2013-07-08 08:39:00,78.1,71.1,29.84,NW,323,6.9,6.9,79,0.00,CLR,,0.00,431.0,WeatherDisplay:10.37,2013-07-08 13:39:00,
2013-07-08 08:44:00,78.2,71.2,29.84,NNW,342,6.0,6.0,79,0.00,CLR,,0.00,448.0,WeatherDisplay:10.37,2013-07-08 13:44:00,
2013-07-08 08:49:00,78.3,70.9,29.84,NW,317,7.0,7.0,78,0.00,CLR,,0.00,462.0,WeatherDisplay:10.37,2013-07-08 13:49:00,
2013-07-08 08:54:00,78.3,70.5,29.85,NW,321,6.0,6.0,77,0.00,CLR,,0.00,478.0,WeatherDisplay:10.37,2013-07-08 13:54:00,
2013-07-08 08:59:00,78.4,71.0,29.85,NNW,331,3.5,0.0,78,0.00,CLR,,0.00,490.0,WeatherDisplay:10.37,2013-07-08 13:59:00,
2013-07-08 09:04:00,78.7,71.3,29.85,NNW,331,1.1,1.1,78,0.00,CLR,,0.00,504.0,WeatherDisplay:10.37,2013-07-08 14:04:00,
2013-07-08 09:09:00,78.9,70.3,29.85,NNW,327,0.0,0.0,75,0.00,CLR,,0.00,520.0,WeatherDisplay:10.37,2013-07-08 14:09:00,
2013-07-08 09:14:00,79.4,71.2,29.85,NNW,327,0.0,0.0,76,0.00,CLR,,0.00,531.0,WeatherDisplay:10.37,2013-07-08 14:14:00,
2013-07-08 09:19:00,80.0,71.4,29.85,NNW,327,0.0,0.0,75,0.00,CLR,,0.00,541.0,WeatherDisplay:10.37,2013-07-08 14:19:00,
2013-07-08 09:24:00,80.2,70.8,29.85,NW,323,3.5,3.5,73,0.00,CLR,,0.00,555.0,WeatherDisplay:10.37,2013-07-08 14:24:00,
2013-07-08 09:29:00,80.5,71.4,29.85,NW,325,3.5,3.5,74,0.00,CLR,,0.00,568.0,WeatherDisplay:10.37,2013-07-08 14:29:00,
2013-07-08 09:34:00,80.9,72.2,29.85,NNW,333,3.5,3.5,75,0.00,CLR,,0.00,587.0,WeatherDisplay:10.37,2013-07-08 14:34:00,
2013-07-08 09:39:00,81.2,72.5,29.84,NNW,345,4.0,4.0,75,0.00,CLR,,0.00,599.0,WeatherDisplay:10.37,2013-07-08 14:39:00,
2013-07-08 09:44:00,81.6,72.5,29.84,North,350,3.5,3.5,74,0.00,CLR,,0.00,615.0,WeatherDisplay:10.37,2013-07-08 14:44:00,
2013-07-08 09:49:00,81.8,73.1,29.84,NNW,339,0.0,0.8,75,0.00,CLR,,0.00,628.0,WeatherDisplay:10.37,2013-07-08 14:49:00,
2013-07-08 09:54:00,82.0,73.3,29.84,NNW,338,0.0,0.0,75,0.00,CLR,,0.00,638.0,WeatherDisplay:10.37,2013-07-08 14:54:00,
2013-07-08 09:59:00,82.4,73.7,29.84,NNW,333,4.0,4.0,75,0.00,CLR,,0.00,649.0,WeatherDisplay:10.37,2013-07-08 14:59:00,
2013-07-08 10:04:00,82.3,73.2,29.84,NNW,330,5.8,5.8,74,0.00,CLR,,0.00,659.0,WeatherDisplay:10.37,2013-07-08 15:04:00,
2013-07-08 10:09:00,82.2,73.9,29.84,NW,312,0.0,0.0,76,0.00,CLR,,0.00,671.0,WeatherDisplay:10.37,2013-07-08 15:09:00,
2013-07-08 10:14:00,82.3,74.0,29.84,NNW,331,0.0,0.0,76,0.00,CLR,,0.00,682.0,WeatherDisplay:10.37,2013-07-08 15:14:00,
2013-07-08 10:19:00,82.5,73.4,29.84,NNW,336,3.5,3.5,74,0.00,CLR,,0.00,694.0,WeatherDisplay:10.37,2013-07-08 15:19:00,
2013-07-08 10:24:00,82.7,73.2,29.85,NW,308,9.2,9.2,73,0.00,CLR,,0.00,705.0,WeatherDisplay:10.37,2013-07-08 15:24:00,
2013-07-08 10:29:00,83.1,74.7,29.85,NW,315,5.0,5.0,76,0.00,CLR,,0.00,717.0,WeatherDisplay:10.37,2013-07-08 15:29:00,
2013-07-08 10:34:00,83.3,73.3,29.85,NNW,342,4.6,4.6,72,0.00,CLR,,0.00,726.0,WeatherDisplay:10.37,2013-07-08 15:34:00,
2013-07-08 10:39:00,83.6,73.6,29.85,NNW,347,0.0,0.0,72,0.00,CLR,,0.00,737.0,WeatherDisplay:10.37,2013-07-08 15:39:00,
2013-07-08 10:44:00,83.9,73.9,29.85,NNW,348,5.0,5.0,72,0.00,CLR,,0.00,745.0,WeatherDisplay:10.37,2013-07-08 15:44:00,
2013-07-08 10:49:00,84.2,73.3,29.85,NW,325,5.8,6.0,70,0.00,CLR,,0.00,752.0,WeatherDisplay:10.37,2013-07-08 15:49:00,
2013-07-08 10:54:00,84.1,72.4,29.85,NW,305,10.4,10.4,68,0.00,FEW,,0.00,763.0,WeatherDisplay:10.37,2013-07-08 15:54:00,
2013-07-08 10:59:00,84.0,73.2,29.85,NW,317,3.5,0.0,70,0.00,FEW,,0.00,775.0,WeatherDisplay:10.37,2013-07-08 15:59:00,
2013-07-08 11:04:00,84.3,73.9,29.85,NW,319,1.1,0.0,71,0.00,CLR,,0.00,796.0,WeatherDisplay:10.37,2013-07-08 16:04:00,
2013-07-08 11:09:00,84.7,73.0,29.84,NNW,329,1.1,0.0,68,0.00,CLR,,0.00,817.0,WeatherDisplay:10.37,2013-07-08 16:09:00,
2013-07-08 11:15:00,85.2,73.9,29.84,NNW,329,1.1,0.0,69,0.00,CLR,,0.00,837.0,WeatherDisplay:10.37,2013-07-08 16:15:00,
2013-07-08 11:20:00,85.7,74.4,29.84,NNW,333,3.0,3.0,69,0.00,CLR,,0.00,886.0,WeatherDisplay:10.37,2013-07-08 16:20:00,
2013-07-08 11:25:00,85.9,73.7,29.84,NNW,337,0.0,0.0,67,0.00,CLR,,0.00,828.0,WeatherDisplay:10.37,2013-07-08 16:25:00,
2013-07-08 11:30:00,86.1,73.9,29.84,NNW,331,4.0,4.2,67,0.00,CLR,,0.00,828.0,WeatherDisplay:10.37,2013-07-08 16:30:00,
2013-07-08 11:35:00,86.0,73.8,29.84,WNW,292,9.2,9.2,67,0.00,CLR,,0.00,905.0,WeatherDisplay:10.37,2013-07-08 16:35:00,
2013-07-08 11:40:00,85.6,72.9,29.84,NW,316,6.9,6.9,66,0.00,CLR,,0.00,835.0,WeatherDisplay:10.37,2013-07-08 16:40:00,
2013-07-08 11:45:00,85.7,73.5,29.84,NW,311,6.9,6.9,67,0.00,FEW,,0.00,837.0,WeatherDisplay:10.37,2013-07-08 16:45:00,
2013-07-08 11:50:00,85.8,73.6,29.84,NW,312,0.0,0.0,67,0.00,FEW,,0.00,838.0,WeatherDisplay:10.37,2013-07-08 16:50:00,
2013-07-08 11:55:00,86.2,74.4,29.84,NW,313,5.8,5.8,68,0.00,FEW,,0.00,840.0,WeatherDisplay:10.37,2013-07-08 16:55:00,
2013-07-08 12:01:00,86.3,74.5,29.84,NW,315,5.8,5.8,68,0.00,FEW,,0.00,846.0,WeatherDisplay:10.37,2013-07-08 17:01:00,
2013-07-08 12:06:00,86.4,74.1,29.84,NW,315,6.9,6.9,67,0.00,FEW,,0.00,854.0,WeatherDisplay:10.37,2013-07-08 17:06:00,
2013-07-08 12:11:00,86.6,73.4,29.84,NNW,329,3.5,3.5,65,0.00,FEW,,0.00,856.0,WeatherDisplay:10.37,2013-07-08 17:11:00,
2013-07-08 12:16:00,87.1,74.4,29.84,NNW,330,1.1,0.0,66,0.00,FEW,,0.00,861.0,WeatherDisplay:10.37,2013-07-08 17:16:00,
2013-07-08 12:22:00,87.5,74.3,29.84,NNW,330,0.0,0.0,65,0.00,FEW,,0.00,868.0,WeatherDisplay:10.37,2013-07-08 17:22:00,
2013-07-08 12:27:00,87.6,75.3,29.83,NNE,27,0.0,0.0,67,0.00,FEW,,0.00,870.0,WeatherDisplay:10.37,2013-07-08 17:27:00,
2013-07-08 12:32:00,87.8,75.5,29.83,NNE,28,2.3,0.0,67,0.00,FEW,,0.00,872.0,WeatherDisplay:10.37,2013-07-08 17:32:00,
2013-07-08 12:38:00,88.0,73.8,29.83,NNW,333,6.0,6.0,63,0.00,FEW,,0.00,877.0,WeatherDisplay:10.37,2013-07-08 17:38:00,
2013-07-08 12:43:00,88.1,73.9,29.83,NE,51,4.6,4.6,63,0.00,FEW,,0.00,875.0,WeatherDisplay:10.37,2013-07-08 17:43:00,
2013-07-08 12:48:00,88.3,74.1,29.83,NE,51,3.5,3.5,63,0.00,FEW,,0.00,877.0,WeatherDisplay:10.37,2013-07-08 17:48:00,
2013-07-08 12:53:00,88.6,74.4,29.83,NNE,28,0.0,0.0,63,0.00,FEW,,0.00,884.0,WeatherDisplay:10.37,2013-07-08 17:53:00,
2013-07-08 12:58:00,88.8,73.6,29.83,North,349,0.0,0.0,61,0.00,FEW,,0.00,882.0,WeatherDisplay:10.37,2013-07-08 17:58:00,
2013-07-08 13:03:00,89.0,74.8,29.83,NNW,344,1.1,0.0,63,0.00,FEW,,0.00,881.0,WeatherDisplay:10.37,2013-07-08 18:03:00,
2013-07-08 13:08:00,89.2,74.0,29.83,NNW,342,3.5,3.5,61,0.00,FEW,,0.00,844.0,WeatherDisplay:10.37,2013-07-08 18:08:00,
2013-07-08 13:14:00,89.3,73.6,29.83,NW,315,4.6,4.6,60,0.00,FEW,,0.00,893.0,WeatherDisplay:10.37,2013-07-08 18:14:00,
2013-07-08 13:19:00,89.3,73.6,29.83,WSW,242,0.0,0.0,60,0.00,FEW,,0.00,914.0,WeatherDisplay:10.37,2013-07-08 18:19:00,
2013-07-08 13:25:00,89.6,75.3,29.83,WSW,244,0.0,0.0,63,0.00,FEW,,0.00,900.0,WeatherDisplay:10.37,2013-07-08 18:25:00,
2013-07-08 13:30:00,89.7,74.5,29.83,NNW,338,4.6,4.6,61,0.00,FEW,,0.00,879.0,WeatherDisplay:10.37,2013-07-08 18:30:00,
2013-07-08 13:35:00,89.9,73.1,29.83,North,360,3.5,0.0,58,0.00,FEW,,0.00,875.0,WeatherDisplay:10.37,2013-07-08 18:35:00,
2013-07-08 13:41:00,89.9,74.6,29.83,North,360,3.5,3.5,61,0.00,FEW,,0.00,874.0,WeatherDisplay:10.37,2013-07-08 18:41:00,
2013-07-08 13:46:00,90.4,75.6,29.83,North,5,1.1,1.1,62,0.00,FEW,,0.00,863.0,WeatherDisplay:10.37,2013-07-08 18:46:00,
2013-07-08 13:51:00,90.4,73.6,29.83,NNE,14,3.0,3.0,58,0.00,FEW,,0.00,870.0,WeatherDisplay:10.37,2013-07-08 18:51:00,
2013-07-08 13:57:00,90.3,73.0,29.83,NNE,12,4.6,4.6,57,0.00,FEW,,0.00,872.0,WeatherDisplay:10.37,2013-07-08 18:57:00,
2013-07-08 14:02:00,90.6,73.3,29.83,NNW,331,4.6,0.0,57,0.00,FEW,,0.00,863.0,WeatherDisplay:10.37,2013-07-08 19:02:00,
2013-07-08 14:08:00,90.7,73.9,29.83,NNW,334,3.5,3.5,58,0.00,FEW,,0.00,861.0,WeatherDisplay:10.37,2013-07-08 19:08:00,
2013-07-08 14:14:00,90.7,75.4,29.83,NW,320,2.3,2.3,61,0.00,FEW,,0.00,847.0,WeatherDisplay:10.37,2013-07-08 19:14:00,
2013-07-08 14:19:00,90.6,74.3,29.83,NNE,15,0.0,0.0,59,0.00,FEW,,0.00,849.0,WeatherDisplay:10.37,2013-07-08 19:19:00,
2013-07-08 14:25:00,90.5,73.7,29.83,NNE,29,0.0,0.0,58,0.00,FEW,,0.00,851.0,WeatherDisplay:10.37,2013-07-08 19:25:00,
2013-07-08 14:31:00,90.8,74.5,29.83,NNE,17,0.0,0.0,59,0.00,FEW,,0.00,874.0,WeatherDisplay:10.37,2013-07-08 19:31:00,
2013-07-08 14:36:00,90.8,72.9,29.83,NW,324,2.3,2.3,56,0.00,FEW,,0.00,251.0,WeatherDisplay:10.37,2013-07-08 19:36:00,
2013-07-08 14:41:00,90.7,73.4,29.83,NW,324,0.0,0.0,57,0.00,SCT,,0.00,884.0,WeatherDisplay:10.37,2013-07-08 19:41:00,
2013-07-08 14:46:00,90.8,73.5,29.83,WNW,297,4.0,4.0,57,0.00,SCT,,0.00,895.0,WeatherDisplay:10.37,2013-07-08 19:46:00,
2013-07-08 14:51:00,91.0,74.7,29.83,WNW,302,5.0,5.0,59,0.00,FEW,,0.00,877.0,WeatherDisplay:10.37,2013-07-08 19:51:00,
2013-07-08 14:57:00,91.4,73.5,29.83,WNW,302,3.5,0.0,56,0.00,FEW,,0.00,918.0,WeatherDisplay:10.37,2013-07-08 19:57:00,
2013-07-08 15:02:00,91.5,73.1,29.83,WNW,284,5.8,5.8,55,0.00,FEW,,0.00,357.0,WeatherDisplay:10.37,2013-07-08 20:02:00,
2013-07-08 15:07:00,91.2,72.8,29.83,West,274,3.5,3.5,55,0.00,SCT,,0.00,796.0,WeatherDisplay:10.37,2013-07-08 20:07:00,
2013-07-08 15:13:00,91.4,74.0,29.83,West,267,3.0,3.0,57,0.00,SCT,,0.00,809.0,WeatherDisplay:10.37,2013-07-08 20:13:00,
2013-07-08 15:18:00,91.7,74.8,29.83,West,266,1.1,0.0,58,0.00,FEW,,0.00,779.0,WeatherDisplay:10.37,2013-07-08 20:18:00,
2013-07-08 15:23:00,91.9,73.4,29.83,South,184,1.1,1.2,55,0.00,FEW,,0.00,779.0,WeatherDisplay:10.37,2013-07-08 20:23:00,
2013-07-08 15:29:00,92.0,74.1,29.82,NW,322,3.5,3.5,56,0.00,FEW,,0.00,749.0,WeatherDisplay:10.37,2013-07-08 20:29:00,
2013-07-08 15:34:00,91.8,73.3,29.82,NW,321,0.0,0.0,55,0.00,FEW,,0.00,522.0,WeatherDisplay:10.37,2013-07-08 20:34:00,
2013-07-08 15:40:00,91.7,73.2,29.82,NW,321,3.5,3.5,55,0.00,FEW,,0.00,775.0,WeatherDisplay:10.37,2013-07-08 20:40:00,
2013-07-08 15:46:00,91.8,73.3,29.82,NW,316,2.3,2.3,55,0.00,CLR,,0.00,687.0,WeatherDisplay:10.37,2013-07-08 20:46:00,
2013-07-08 15:52:00,91.9,74.5,29.82,NW,309,3.5,3.5,57,0.00,CLR,,0.00,756.0,WeatherDisplay:10.37,2013-07-08 20:52:00,
2013-07-08 15:57:00,91.9,73.4,29.82,West,260,3.5,3.5,55,0.00,CLR,,0.00,707.0,WeatherDisplay:10.37,2013-07-08 20:57:00,
2013-07-08 16:02:00,92.0,72.4,29.82,SW,217,3.0,3.0,53,0.00,FEW,,0.00,682.0,WeatherDisplay:10.37,2013-07-08 21:02:00,
2013-07-08 16:07:00,92.2,73.7,29.82,SW,217,0.0,0.0,55,0.00,FEW,,0.00,663.0,WeatherDisplay:10.37,2013-07-08 21:07:00,
2013-07-08 16:13:00,92.3,72.1,29.82,West,260,2.3,2.3,52,0.00,FEW,,0.00,666.0,WeatherDisplay:10.37,2013-07-08 21:13:00,
2013-07-08 16:18:00,92.3,72.1,29.82,West,260,2.3,2.3,52,0.00,SCT,,0.00,652.0,WeatherDisplay:10.37,2013-07-08 21:18:00,
2013-07-08 16:25:00,92.5,70.6,29.82,West,265,0.0,0.0,49,0.00,SCT,,0.00,629.0,WeatherDisplay:10.37,2013-07-08 21:25:00,
2013-07-08 16:31:00,92.6,73.0,29.82,SW,227,0.0,0.0,53,0.00,FEW,,0.00,612.0,WeatherDisplay:10.37,2013-07-08 21:31:00,
2013-07-08 16:36:00,92.9,72.1,29.82,SW,228,0.0,0.0,51,0.00,FEW,,0.00,599.0,WeatherDisplay:10.37,2013-07-08 21:36:00,
2013-07-08 16:41:00,93.1,72.3,29.82,WSW,246,0.0,0.1,51,0.00,FEW,,0.00,587.0,WeatherDisplay:10.37,2013-07-08 21:41:00,
2013-07-08 16:47:00,93.1,71.1,29.82,WSW,246,4.6,4.6,49,0.00,FEW,,0.00,573.0,WeatherDisplay:10.37,2013-07-08 21:47:00,
2013-07-08 16:52:00,93.2,70.0,29.82,WSW,246,1.1,0.0,47,0.00,FEW,,0.00,559.0,WeatherDisplay:10.37,2013-07-08 21:52:00,
2013-07-08 16:57:00,93.2,70.6,29.82,WSW,257,0.0,0.0,48,0.00,FEW,,0.00,538.0,WeatherDisplay:10.37,2013-07-08 21:57:00,
2013-07-08 17:03:00,93.3,71.3,29.82,WSW,256,0.0,0.0,49,0.00,FEW,,0.00,522.0,WeatherDisplay:10.37,2013-07-08 22:03:00,
2013-07-08 17:08:00,93.5,70.9,29.82,WSW,256,0.0,0.0,48,0.00,FEW,,0.00,510.0,WeatherDisplay:10.37,2013-07-08 22:08:00,
2013-07-08 17:14:00,93.6,71.6,29.81,WSW,257,1.1,0.0,49,0.00,FEW,,0.00,490.0,WeatherDisplay:10.37,2013-07-08 22:14:00,
2013-07-08 17:19:00,93.6,72.7,29.81,West,273,4.6,4.6,51,0.00,FEW,,0.00,480.0,WeatherDisplay:10.37,2013-07-08 22:19:00,
2013-07-08 17:25:00,93.3,73.6,29.81,NW,304,0.0,0.0,53,0.00,FEW,,0.00,459.0,WeatherDisplay:10.37,2013-07-08 22:25:00,
2013-07-08 17:31:00,93.3,72.5,29.81,NW,304,0.0,0.0,51,0.00,FEW,,0.00,446.0,WeatherDisplay:10.37,2013-07-08 22:31:00,
2013-07-08 17:36:00,93.1,71.7,29.81,SSE,163,5.8,5.8,50,0.00,FEW,,0.00,439.0,WeatherDisplay:10.37,2013-07-08 22:36:00,
2013-07-08 17:42:00,92.9,71.5,29.81,SSE,163,0.0,0.0,50,0.00,FEW,,0.00,425.0,WeatherDisplay:10.37,2013-07-08 22:42:00,
2013-07-08 17:47:00,92.9,71.5,29.81,SSE,163,4.0,4.0,50,0.00,FEW,,0.00,406.0,WeatherDisplay:10.37,2013-07-08 22:47:00,
2013-07-08 17:52:00,92.7,71.3,29.81,SE,132,0.0,0.0,50,0.00,FEW,,0.00,392.0,WeatherDisplay:10.37,2013-07-08 22:52:00,
2013-07-08 17:57:00,92.7,71.9,29.81,SE,132,0.0,0.0,51,0.00,FEW,,0.00,380.0,WeatherDisplay:10.37,2013-07-08 22:57:00,
2013-07-08 18:03:00,92.9,72.1,29.81,SE,132,1.1,1.1,51,0.00,FEW,,0.00,369.0,WeatherDisplay:10.37,2013-07-08 23:03:00,
2013-07-08 18:08:00,93.2,73.0,29.81,West,271,2.0,2.0,52,0.00,FEW,,0.00,269.0,WeatherDisplay:10.37,2013-07-08 23:08:00,
2013-07-08 18:15:00,92.8,71.4,29.82,West,273,0.0,0.0,50,0.00,BKN,,0.00,109.0,WeatherDisplay:10.37,2013-07-08 23:15:00,
2013-07-08 18:21:00,92.2,71.5,29.82,WNW,284,4.0,4.0,51,0.00,BKN,,0.00,141.0,WeatherDisplay:10.37,2013-07-08 23:21:00,
2013-07-08 18:26:00,91.7,72.7,29.82,WNW,284,0.0,0.0,54,0.00,BKN,,0.00,105.0,WeatherDisplay:10.37,2013-07-08 23:26:00,
2013-07-08 18:31:00,91.3,71.8,29.82,WNW,284,0.0,0.0,53,0.00,BKN,,0.00,135.0,WeatherDisplay:10.37,2013-07-08 23:31:00,
2013-07-08 18:37:00,91.0,73.1,29.82,WNW,284,0.0,0.0,56,0.00,BKN,,0.00,135.0,WeatherDisplay:10.37,2013-07-08 23:37:00,
2013-07-08 18:42:00,90.7,74.4,29.83,WNW,284,0.0,0.0,59,0.00,BKN,,0.00,176.0,WeatherDisplay:10.37,2013-07-08 23:42:00,
2013-07-08 18:47:00,90.5,74.2,29.83,WNW,284,2.3,2.3,59,0.00,SCT,,0.00,160.0,WeatherDisplay:10.37,2013-07-08 23:47:00,
2013-07-08 18:53:00,90.4,74.1,29.83,WNW,284,0.0,0.0,59,0.00,BKN,,0.00,111.0,WeatherDisplay:10.37,2013-07-08 23:53:00,
2013-07-08 18:59:00,90.1,72.8,29.83,WNW,284,1.1,1.1,57,0.00,BKN,,0.00,192.0,WeatherDisplay:10.37,2013-07-08 23:59:00,
2013-07-08 19:04:00,90.0,72.7,29.83,WNW,284,0.0,0.0,57,0.00,SCT,,0.00,230.0,WeatherDisplay:10.37,2013-07-09 00:04:00,
2013-07-08 19:09:00,90.0,72.2,29.83,WNW,284,0.0,0.1,56,0.00,CLR,,0.00,232.0,WeatherDisplay:10.37,2013-07-09 00:09:00,
2013-07-08 19:15:00,90.2,74.4,29.83,SSE,159,5.8,5.8,60,0.00,CLR,,0.00,209.0,WeatherDisplay:10.37,2013-07-09 00:15:00,
2013-07-08 19:21:00,89.8,76.0,29.83,SSW,194,5.8,5.8,64,0.00,CLR,,0.00,125.0,WeatherDisplay:10.37,2013-07-09 00:21:00,
2013-07-08 19:27:00,89.1,76.3,29.82,WSW,241,5.0,5.0,66,0.00,FEW,,0.00,200.0,WeatherDisplay:10.37,2013-07-09 00:27:00,
2013-07-08 19:33:00,88.8,76.9,29.82,WSW,246,6.9,6.9,68,0.00,CLR,,0.00,156.0,WeatherDisplay:10.37,2013-07-09 00:33:00,
2013-07-08 19:38:00,88.6,77.1,29.82,SW,232,4.0,4.0,69,0.00,CLR,,0.00,132.0,WeatherDisplay:10.37,2013-07-09 00:38:00,
2013-07-08 19:43:00,88.3,76.8,29.81,SW,232,3.0,3.0,69,0.00,CLR,,0.00,116.0,WeatherDisplay:10.37,2013-07-09 00:43:00,
2013-07-08 19:48:00,88.0,77.0,29.81,WSW,248,4.6,4.6,70,0.00,FEW,,0.00,105.0,WeatherDisplay:10.37,2013-07-09 00:48:00,
2013-07-08 19:54:00,87.8,76.8,29.81,WSW,247,3.5,3.5,70,0.00,FEW,,0.00,93.0,WeatherDisplay:10.37,2013-07-09 00:54:00,
2013-07-08 20:00:00,87.5,76.9,29.81,West,267,3.5,0.0,71,0.00,FEW,,0.00,83.0,WeatherDisplay:10.37,2013-07-09 01:00:00,
2013-07-08 20:05:00,87.2,77.1,29.81,West,267,0.0,0.8,72,0.00,FEW,,0.00,69.0,WeatherDisplay:10.37,2013-07-09 01:05:00,
2013-07-08 20:11:00,87.1,77.0,29.81,West,267,2.3,2.3,72,0.00,SCT,,0.00,54.0,WeatherDisplay:10.37,2013-07-09 01:11:00,
2013-07-08 20:17:00,86.7,77.0,29.81,West,267,0.0,0.0,73,0.00,SCT,,0.00,44.0,WeatherDisplay:10.37,2013-07-09 01:17:00,
2013-07-08 20:22:00,86.5,76.8,29.81,West,267,0.0,0.0,73,0.00,SCT,,0.00,33.0,WeatherDisplay:10.37,2013-07-09 01:22:00,
2013-07-08 20:28:00,86.0,76.3,29.81,West,267,1.1,0.0,73,0.00,BKN,,0.00,21.0,WeatherDisplay:10.37,2013-07-09 01:28:00,
2013-07-08 20:34:00,85.6,76.4,29.81,West,267,0.0,0.0,74,0.00,BKN,,0.00,12.0,WeatherDisplay:10.37,2013-07-09 01:34:00,
2013-07-08 20:39:00,85.2,75.6,29.82,West,266,4.6,4.6,73,0.00,BKN,,0.00,7.0,WeatherDisplay:10.37,2013-07-09 01:39:00,
2013-07-08 20:44:00,84.8,75.6,29.82,West,266,0.0,0.0,74,0.00,BKN,,0.00,5.0,WeatherDisplay:10.37,2013-07-09 01:44:00,
2013-07-08 20:49:00,84.4,75.2,29.82,West,266,1.1,0.0,74,0.00,,,0.00,0.0,WeatherDisplay:10.37,2013-07-09 01:49:00,
2013-07-08 20:55:00,84.1,74.9,29.83,West,266,0.0,0.0,74,0.00,,,0.00,0.0,WeatherDisplay:10.37,2013-07-09 01:55:00,
2013-07-08 21:01:00,83.8,75.0,29.83,West,266,0.0,0.0,75,0.00,,,0.00,0.0,WeatherDisplay:10.37,2013-07-09 02:01:00,
2013-07-08 21:06:00,83.4,75.0,29.83,West,266,0.0,0.0,76,0.00,,,0.00,0.0,WeatherDisplay:10.37,2013-07-09 02:06:00,
2013-07-08 21:11:00,83.0,74.6,29.83,West,266,0.0,0.0,76,0.00,,,0.00,0.0,WeatherDisplay:10.37,2013-07-09 02:11:00,
2013-07-08 21:16:00,82.7,74.0,29.83,West,266,0.0,0.0,75,0.00,,,0.00,0.0,WeatherDisplay:10.37,2013-07-09 02:16:00,
2013-07-08 21:22:00,82.3,73.6,29.83,West,266,0.0,0.0,75,0.00,,,0.00,0.0,WeatherDisplay:10.37,2013-07-09 02:22:00,
2013-07-08 21:27:00,82.0,73.3,29.83,West,266,0.0,0.0,75,0.00,,,0.00,0.0,WeatherDisplay:10.37,2013-07-09 02:27:00,
2013-07-08 21:32:00,81.7,72.2,29.83,West,266,0.0,0.0,73,0.00,,,0.00,0.0,WeatherDisplay:10.37,2013-07-09 02:32:00,
2013-07-08 21:37:00,81.5,71.6,29.83,West,266,0.0,0.0,72,0.00,,,0.00,0.0,WeatherDisplay:10.37,2013-07-09 02:37:00,
2013-07-08 21:43:00,81.4,71.9,29.84,West,266,0.0,0.0,73,0.00,,,0.00,0.0,WeatherDisplay:10.37,2013-07-09 02:43:00,
2013-07-08 21:50:00,81.3,71.8,29.84,West,266,0.0,0.0,73,0.00,,,0.00,0.0,WeatherDisplay:10.37,2013-07-09 02:50:00,
2013-07-08 21:55:00,81.2,71.3,29.85,West,266,0.0,0.0,72,0.00,,,0.00,0.0,WeatherDisplay:10.37,2013-07-09 02:55:00,
2013-07-08 22:01:00,81.0,71.1,29.85,West,266,0.0,0.0,72,0.00,,,0.00,0.0,WeatherDisplay:10.37,2013-07-09 03:01:00,
2013-07-08 22:06:00,80.8,71.3,29.85,West,266,0.0,0.0,73,0.00,,,0.00,0.0,WeatherDisplay:10.37,2013-07-09 03:06:00,
2013-07-08 22:12:00,80.7,71.6,29.85,West,266,0.0,0.0,74,0.00,,,0.00,0.0,WeatherDisplay:10.37,2013-07-09 03:12:00,
2013-07-08 22:17:00,80.5,71.4,29.85,West,266,0.0,0.0,74,0.00,,,0.00,0.0,WeatherDisplay:10.37,2013-07-09 03:17:00,
2013-07-08 22:23:00,80.3,72.0,29.85,West,266,0.0,0.0,76,0.00,,,0.00,0.0,WeatherDisplay:10.37,2013-07-09 03:23:00,
2013-07-08 22:28:00,80.2,72.7,29.85,West,266,0.0,0.0,78,0.00,,,0.00,0.0,WeatherDisplay:10.37,2013-07-09 03:28:00,
2013-07-08 22:34:00,80.3,73.2,29.85,West,266,0.0,0.0,79,0.00,,,0.00,0.0,WeatherDisplay:10.37,2013-07-09 03:34:00,
2013-07-08 22:39:00,80.3,73.9,29.85,West,263,1.1,1.1,81,0.00,,,0.00,0.0,WeatherDisplay:10.37,2013-07-09 03:39:00,
2013-07-08 22:45:00,80.3,74.3,29.85,West,262,1.1,0.0,82,0.00,,,0.00,0.0,WeatherDisplay:10.37,2013-07-09 03:45:00,
2013-07-08 22:50:00,80.2,74.2,29.85,West,262,0.0,0.0,82,0.00,,,0.00,0.0,WeatherDisplay:10.37,2013-07-09 03:50:00,
2013-07-08 22:56:00,80.1,74.5,29.85,West,260,0.0,0.0,83,0.00,,,0.00,0.0,WeatherDisplay:10.37,2013-07-09 03:56:00,
2013-07-08 23:01:00,80.1,74.8,29.85,WSW,256,1.1,0.0,84,0.00,,,0.00,0.0,WeatherDisplay:10.37,2013-07-09 04:01:00,
2013-07-08 23:02:00,80.1,74.8,29.85,WSW,256,0.0,0.0,84,0.00,,,0.00,0.0,WeatherDisplay:10.37,2013-07-09 04:02:00,
2013-07-08 23:07:00,80.0,74.7,29.85,WSW,256,0.0,0.0,84,0.00,,,0.00,0.0,WeatherDisplay:10.37,2013-07-09 04:07:00,
2013-07-08 23:12:00,79.9,74.6,29.85,WSW,256,0.0,0.0,84,0.00,,,0.00,0.0,WeatherDisplay:10.37,2013-07-09 04:12:00,
2013-07-08 23:17:00,79.9,74.6,29.85,WSW,256,0.0,0.0,84,0.00,,,0.00,0.0,WeatherDisplay:10.37,2013-07-09 04:17:00,
2013-07-08 23:22:00,79.8,74.5,29.85,WSW,256,0.0,0.0,84,0.00,,,0.00,0.0,WeatherDisplay:10.37,2013-07-09 04:22:00,
2013-07-08 23:27:00,79.7,74.8,29.85,WSW,256,0.0,0.1,85,0.00,,,0.00,0.0,WeatherDisplay:10.37,2013-07-09 04:27:00,
2013-07-08 23:32:00,79.6,74.7,29.85,WSW,256,0.0,0.0,85,0.00,,,0.00,0.0,WeatherDisplay:10.37,2013-07-09 04:32:00,
2013-07-08 23:37:00,79.5,74.6,29.85,WSW,256,0.0,0.0,85,0.00,,,0.00,0.0,WeatherDisplay:10.37,2013-07-09 04:37:00,
2013-07-08 23:42:00,79.4,74.5,29.85,WSW,256,0.0,0.0,85,0.00,,,0.00,0.0,WeatherDisplay:10.37,2013-07-09 04:42:00,
2013-07-08 23:48:00,79.3,74.7,29.85,WSW,256,0.0,0.0,86,0.00,,,0.00,0.0,WeatherDisplay:10.37,2013-07-09 04:48:00,
2013-07-08 23:53:00,79.2,74.6,29.85,WSW,256,0.0,0.0,86,0.00,,,0.00,0.0,WeatherDisplay:10.37,2013-07-09 04:53:00,
2013-07-08 23:58:00,79.1,74.5,29.85,WSW,256,0.0,0.0,86,0.00,,,0.00,0.0,WeatherDisplay:10.37,2013-07-09 04:58:00,